Green Lake, Wisconsin
Current Conditions -  °F | °C
As of 7:53 AM on Tuesday 21 Oct 2014 (Local Time) from KOSH Reporting Station
Overcast Overcast  
Wind Chill: 38°   Ceiling: 2600
Heat Index: 44°   Visibility: 10mi
Dew Point: 37°   Wind: 13mph
Humidity: 76%   Direction: 10°N
Pressure: 30.18"   Gusts: NA
Location:  43.84°N, 88.96°W
Report Text: KOSH 211253Z 01011KT 10SM OVC026 07/03 A3018 RMK AO2 SLP222 T00670028
Loading
Personal Weather Stations






























Interactive Weather Map
Tropical Storm Tracking
New forecast layout! Learn more

10-Day Weather Forecast

Advertisements
Track Severe Weather on mobile